Time;durP1;ratioP1;P1;durP2;ratioP2;P2;SDS_P1;SDS_P2;PMS_P1;PMS_P2;Temp;Humidity;BMP_temperature;BMP_pressure;BME280_temperature;BME280_humidity;BME280_pressure;Samples;Min_cycle;Max_cycle;Signal;HPM_P1;HPM_P2
2023/03/31 00:02:00;;;;;;;3.57;1.70;;;12.20;99.90;;;;;;5075744;28;20453;-79
2023/03/31 00:04:27;;;;;;;3.30;1.40;;;12.10;99.90;;;;;;5075426;28;20507;-79
2023/03/31 00:06:53;;;;;;;3.70;1.40;;;12.00;99.90;;;;;;5075062;28;20934;-79
2023/03/31 00:09:20;;;;;;;4.27;1.93;;;12.00;99.90;;;;;;5075805;28;20410;-79
2023/03/31 00:11:50;;;;;;;3.63;1.43;;;12.10;99.90;;;;;;5074675;28;20418;-79
2023/03/31 00:14:18;;;;;;;3.30;1.30;;;12.10;99.90;;;;;;5074241;28;20569;-78
2023/03/31 00:16:44;;;;;;;3.87;1.70;;;12.10;99.90;;;;;;5075459;28;20771;-79
2023/03/31 00:19:16;;;;;;;3.57;1.43;;;12.00;99.90;;;;;;5075232;28;20592;-79
2023/03/31 00:21:44;;;;;;;2.90;1.30;;;12.00;99.90;;;;;;5074881;28;20492;-76
2023/03/31 00:24:11;;;;;;;2.00;1.30;;;12.00;99.90;;;;;;5075620;28;20429;-79
2023/03/31 00:26:37;;;;;;;2.17;1.10;;;12.00;99.90;;;;;;5074476;28;20451;-79
2023/03/31 00:29:05;;;;;;;3.20;1.37;;;11.90;99.90;;;;;;5073861;28;20422;-78
2023/03/31 00:31:32;;;;;;;4.03;1.30;;;12.00;99.90;;;;;;5075307;28;20187;-79
2023/03/31 00:33:58;;;;;;;4.23;1.40;;;12.00;99.90;;;;;;5078237;28;20431;-79
2023/03/31 00:36:27;;;;;;;4.40;1.10;;;12.00;99.90;;;;;;5096703;28;20460;-79
2023/03/31 00:39:08;;;;;;;2.40;1.07;;;12.00;99.90;;;;;;5093787;28;20186;-78
2023/03/31 00:41:36;;;;;;;3.10;1.20;;;12.00;99.90;;;;;;5093983;28;20418;-79
2023/03/31 00:44:21;;;;;;;4.53;1.30;;;12.00;99.90;;;;;;5095499;28;20526;-77
2023/03/31 00:47:09;;;;;;;3.33;1.20;;;12.00;99.90;;;;;;5095326;28;20452;-79
2023/03/31 00:49:39;;;;;;;8.10;1.83;;;11.90;99.90;;;;;;5095124;28;20915;-79
2023/03/31 00:52:15;;;;;;;3.83;1.10;;;12.00;99.90;;;;;;5095389;28;20441;-78
2023/03/31 00:54:43;;;;;;;2.03;1.20;;;12.00;99.90;;;;;;5093994;28;20445;-79
2023/03/31 00:57:09;;;;;;;3.30;2.17;;;12.00;99.90;;;;;;5095277;28;20414;-79
2023/03/31 00:59:41;;;;;;;3.00;1.17;;;12.00;99.90;;;;;;5093768;28;20418;-79
2023/03/31 01:02:08;;;;;;;2.10;1.10;;;12.00;99.90;;;;;;5095189;28;20486;-79
2023/03/31 01:04:49;;;;;;;3.70;1.30;;;12.00;99.90;;;;;;5093268;28;20434;-79
2023/03/31 01:07:32;;;;;;;2.67;1.10;;;12.00;99.90;;;;;;5094981;28;20427;-78
2023/03/31 01:10:00;;;;;;;5.13;1.40;;;12.00;99.90;;;;;;5095389;28;20444;-78
2023/03/31 01:12:26;;;;;;;4.10;1.17;;;12.10;99.90;;;;;;5093999;28;20425;-78
2023/03/31 01:14:54;;;;;;;6.00;2.43;;;12.00;99.90;;;;;;5094250;28;20953;-78
2023/03/31 01:17:21;;;;;;;5.70;1.70;;;12.00;99.90;;;;;;5093317;28;20410;-79
2023/03/31 01:20:11;;;;;;;6.10;1.70;;;12.00;99.90;;;;;;5094758;28;20407;-79
2023/03/31 01:22:48;;;;;;;5.30;2.10;;;12.00;99.90;;;;;;5093291;28;20783;-78
2023/03/31 01:25:23;;;;;;;3.60;1.63;;;12.00;99.90;;;;;;5094795;28;20468;-79
2023/03/31 01:28:00;;;;;;;3.87;1.37;;;12.00;99.90;;;;;;5092897;28;20428;-78
2023/03/31 01:31:03;;;;;;;4.03;1.70;;;12.00;99.90;;;;;;5094311;28;20498;-78
2023/03/31 01:33:41;;;;;;;4.83;1.73;;;12.00;99.90;;;;;;5094515;28;20406;-76
2023/03/31 01:36:35;;;;;;;6.57;1.67;;;12.00;99.90;;;;;;5074316;28;20419;-79
2023/03/31 01:39:07;;;;;;;4.50;1.30;;;12.00;99.90;;;;;;5077876;28;20427;-79
2023/03/31 01:41:34;;;;;;;3.10;1.60;;;12.00;99.90;;;;;;5114730;28;20913;-78
2023/03/31 01:44:12;;;;;;;4.60;1.80;;;11.90;99.90;;;;;;5113752;28;20760;-79
2023/03/31 01:46:59;;;;;;;5.17;1.90;;;11.90;99.90;;;;;;5114677;28;20457;-78
2023/03/31 01:49:55;;;;;;;7.50;2.00;;;11.90;99.90;;;;;;5112877;28;20493;-77
2023/03/31 01:52:37;;;;;;;3.63;1.70;;;11.90;99.90;;;;;;5115311;28;20769;-79
2023/03/31 01:55:11;;;;;;;6.10;1.50;;;11.90;99.90;;;;;;5115153;28;20429;-79
2023/03/31 01:57:42;;;;;;;3.67;1.50;;;11.90;99.90;;;;;;5112917;28;20425;-78
2023/03/31 02:00:24;;;;;;;4.70;1.70;;;11.90;99.90;;;;;;5114525;28;20428;-77
2023/03/31 02:03:00;;;;;;;5.13;1.30;;;11.90;99.90;;;;;;5113410;28;20424;-78
2023/03/31 02:05:32;;;;;;;3.10;1.60;;;11.90;99.90;;;;;;5112874;28;20465;-77
2023/03/31 02:08:14;;;;;;;4.53;1.30;;;11.90;99.90;;;;;;5114474;28;21070;-78
2023/03/31 02:10:42;;;;;;;5.10;2.00;;;11.90;99.90;;;;;;5114616;28;20459;-79
2023/03/31 02:13:11;;;;;;;4.30;1.97;;;11.90;99.90;;;;;;5112857;28;20421;-78
2023/03/31 02:15:40;;;;;;;3.80;1.60;;;11.90;99.90;;;;;;5113520;28;20442;-79
2023/03/31 02:18:10;;;;;;;2.97;1.43;;;11.90;99.90;;;;;;5114652;28;20424;-79
2023/03/31 02:20:41;;;;;;;4.00;1.53;;;11.90;99.90;;;;;;5113989;28;20417;-78
2023/03/31 02:23:09;;;;;;;4.00;1.60;;;11.90;99.90;;;;;;5112967;28;20475;-79
2023/03/31 02:25:41;;;;;;;3.30;1.10;;;11.90;99.90;;;;;;5114295;28;20460;-79
2023/03/31 02:28:13;;;;;;;5.73;1.60;;;11.90;99.90;;;;;;5114250;28;20417;-78
2023/03/31 02:30:49;;;;;;;6.23;1.60;;;11.90;99.90;;;;;;5095689;28;20467;-78
2023/03/31 02:33:15;;;;;;;6.10;1.67;;;11.90;99.90;;;;;;5114389;28;20894;-79
2023/03/31 02:35:41;;;;;;;3.33;1.20;;;11.90;99.90;;;;;;5096097;28;20450;-78
2023/03/31 02:38:07;;;;;;;3.73;1.40;;;11.90;99.90;;;;;;5093231;28;20182;-77
2023/03/31 02:40:33;;;;;;;3.10;1.70;;;11.90;99.90;;;;;;5114859;28;20429;-77
2023/03/31 02:42:59;;;;;;;2.90;1.43;;;11.90;99.90;;;;;;5120177;28;20436;-78
2023/03/31 02:45:49;;;;;;;5.00;1.53;;;11.90;99.90;;;;;;5116328;28;20214;-79
2023/03/31 02:48:24;;;;;;;7.57;2.03;;;11.80;99.90;;;;;;5112847;28;20925;-77
2023/03/31 02:51:08;;;;;;;4.57;1.77;;;11.80;99.90;;;;;;5094968;28;20416;-77
2023/03/31 02:54:11;;;;;;;4.50;1.87;;;11.80;99.90;;;;;;5113346;28;20449;-77
2023/03/31 02:57:27;;;;;;;5.70;2.20;;;11.70;99.90;;;;;;5114562;28;20454;-79
2023/03/31 03:00:07;;;;;;;8.70;2.33;;;11.70;99.90;;;;;;5100269;28;20452;-79
2023/03/31 03:03:11;;;;;;;2.27;1.60;;;11.70;99.90;;;;;;5111973;28;20452;-78
2023/03/31 03:06:05;;;;;;;7.37;2.20;;;11.70;99.90;;;;;;5112417;28;20817;-79
2023/03/31 03:09:07;;;;;;;9.60;2.37;;;11.70;99.90;;;;;;5111416;28;20897;-78
2023/03/31 03:11:42;;;;;;;8.83;2.63;;;11.70;99.90;;;;;;5111238;28;20792;-78
2023/03/31 03:14:29;;;;;;;4.80;1.90;;;11.70;99.90;;;;;;5111208;28;20413;-78
2023/03/31 03:17:03;;;;;;;8.57;1.83;;;11.70;99.90;;;;;;5112214;28;20421;-78
2023/03/31 03:19:29;;;;;;;4.67;1.90;;;11.70;99.90;;;;;;5112093;28;20402;-78
2023/03/31 03:21:55;;;;;;;3.40;1.97;;;11.70;99.90;;;;;;5112685;28;20760;-77
2023/03/31 03:24:21;;;;;;;4.83;1.43;;;11.70;99.90;;;;;;5111782;28;20622;-78
2023/03/31 03:26:47;;;;;;;7.40;2.03;;;11.70;99.90;;;;;;5112517;28;20207;-77
2023/03/31 03:29:13;;;;;;;7.97;1.80;;;11.70;99.90;;;;;;5112597;28;21145;-78
2023/03/31 03:31:39;;;;;;;3.30;1.73;;;11.80;99.90;;;;;;5112833;28;20176;-78
2023/03/31 03:34:05;;;;;;;6.20;2.20;;;11.80;99.90;;;;;;5108375;28;20437;-77
2023/03/31 03:36:31;;;;;;;3.77;1.67;;;11.70;99.90;;;;;;5092983;28;20419;-77
2023/03/31 03:38:58;;;;;;;5.50;1.70;;;11.70;99.90;;;;;;5093189;28;20410;-78
2023/03/31 03:41:26;;;;;;;3.60;1.60;;;11.70;99.90;;;;;;5094216;28;20497;-78
2023/03/31 03:43:52;;;;;;;3.63;1.60;;;11.70;99.90;;;;;;5112949;28;20437;-79
2023/03/31 03:46:17;;;;;;;5.23;2.10;;;11.70;99.90;;;;;;5112153;28;20878;-77
2023/03/31 03:48:43;;;;;;;5.53;1.33;;;11.70;99.90;;;;;;5112162;28;20223;-78
2023/03/31 03:51:11;;;;;;;9.70;2.17;;;11.70;99.90;;;;;;5113441;28;20225;-78
2023/03/31 03:53:37;;;;;;;7.50;2.00;;;11.70;99.90;;;;;;5113478;28;20176;-79
2023/03/31 03:56:03;;;;;;;8.10;2.23;;;11.60;99.90;;;;;;5113083;28;20470;-79
2023/03/31 03:58:28;;;;;;;4.37;1.60;;;11.60;99.90;;;;;;5114656;28;20644;-78
2023/03/31 04:00:55;;;;;;;5.33;1.70;;;11.60;99.90;;;;;;5113853;28;20183;-78
2023/03/31 04:03:21;;;;;;;4.17;2.07;;;11.60;99.90;;;;;;5112090;28;20329;-77
2023/03/31 04:05:50;;;;;;;5.23;1.90;;;11.60;99.90;;;;;;5111822;28;20567;-79
2023/03/31 04:08:17;;;;;;;4.70;2.23;;;11.60;99.90;;;;;;5113645;28;20183;-78
2023/03/31 04:10:44;;;;;;;7.00;2.00;;;11.60;99.90;;;;;;5114191;28;20448;-77
2023/03/31 04:13:10;;;;;;;5.60;1.57;;;11.60;99.90;;;;;;5116695;28;20414;-79
2023/03/31 04:15:35;;;;;;;4.57;1.60;;;11.50;99.90;;;;;;5115948;28;21052;-76
2023/03/31 04:18:01;;;;;;;5.20;1.50;;;11.60;99.90;;;;;;5116271;28;20653;-79
2023/03/31 04:20:29;;;;;;;5.80;1.63;;;11.60;99.90;;;;;;5116227;28;20179;-79
2023/03/31 04:22:55;;;;;;;9.13;1.77;;;11.60;99.90;;;;;;5117000;28;20748;-78
2023/03/31 04:25:21;;;;;;;5.77;2.13;;;11.50;99.90;;;;;;5116391;28;20556;-78
2023/03/31 04:27:49;;;;;;;4.87;2.00;;;11.50;99.90;;;;;;5116445;28;20539;-79
2023/03/31 04:30:22;;;;;;;6.03;2.50;;;11.60;99.90;;;;;;5116596;28;21118;-79
2023/03/31 04:32:53;;;;;;;3.93;1.67;;;11.60;99.90;;;;;;5117094;28;20761;-78
2023/03/31 04:35:24;;;;;;;4.40;1.70;;;11.60;99.90;;;;;;5101368;28;20438;-78
2023/03/31 04:37:51;;;;;;;8.53;1.80;;;11.60;99.90;;;;;;5095475;28;20543;-79
2023/03/31 04:40:17;;;;;;;6.03;1.97;;;11.50;99.90;;;;;;5106836;28;20475;-79
2023/03/31 04:42:44;;;;;;;5.30;1.80;;;11.40;99.90;;;;;;5116340;28;20428;-78
2023/03/31 04:45:10;;;;;;;6.93;2.07;;;11.40;99.90;;;;;;5115646;28;20460;-77
2023/03/31 04:47:36;;;;;;;4.27;1.80;;;11.40;99.90;;;;;;5115031;28;20428;-77
2023/03/31 04:50:02;;;;;;;3.50;1.33;;;11.50;99.90;;;;;;5115703;28;20405;-76
2023/03/31 04:52:28;;;;;;;4.63;1.40;;;11.40;99.90;;;;;;5114695;28;20789;-78
2023/03/31 04:54:53;;;;;;;4.53;2.30;;;11.40;99.90;;;;;;5096784;28;21106;-78
2023/03/31 04:57:20;;;;;;;8.57;2.43;;;11.50;99.90;;;;;;5114931;28;20194;-78
2023/03/31 04:59:45;;;;;;;4.80;1.70;;;11.50;99.90;;;;;;5094671;28;20184;-79
2023/03/31 05:02:11;;;;;;;5.40;1.67;;;11.40;99.90;;;;;;5092856;28;21273;-78
2023/03/31 05:04:37;;;;;;;5.93;1.63;;;11.40;99.90;;;;;;5090937;28;20221;-78
2023/03/31 05:07:03;;;;;;;3.67;1.43;;;11.40;99.90;;;;;;5094061;28;20181;-79
2023/03/31 05:09:29;;;;;;;5.13;1.47;;;11.30;99.90;;;;;;5093581;28;20794;-77
2023/03/31 05:11:56;;;;;;;2.10;1.90;;;11.30;99.90;;;;;;5095511;28;20176;-79
2023/03/31 05:14:21;;;;;;;6.20;2.03;;;11.30;99.90;;;;;;5093982;28;20200;-78
2023/03/31 05:16:47;;;;;;;9.60;2.17;;;11.30;99.90;;;;;;5095426;28;20418;-78
2023/03/31 05:19:13;;;;;;;5.17;1.70;;;11.30;99.90;;;;;;5094165;28;20199;-79
2023/03/31 05:21:38;;;;;;;4.97;1.57;;;11.30;99.90;;;;;;5084504;28;20961;-79
2023/03/31 05:24:04;;;;;;;4.00;1.63;;;11.40;99.90;;;;;;5091676;28;20192;-78
2023/03/31 05:26:30;;;;;;;5.00;1.70;;;11.30;99.90;;;;;;5093691;28;20196;-79
2023/03/31 05:28:56;;;;;;;5.47;1.83;;;11.30;99.90;;;;;;5094896;28;20415;-79
2023/03/31 05:31:22;;;;;;;6.30;1.60;;;11.30;99.90;;;;;;5093504;28;20637;-78
2023/03/31 05:33:48;;;;;;;3.67;1.20;;;11.30;99.90;;;;;;5106885;28;20456;-76
2023/03/31 05:36:16;;;;;;;6.10;1.90;;;11.30;99.90;;;;;;5093269;28;20459;-78
2023/03/31 05:38:42;;;;;;;3.50;1.57;;;11.20;99.90;;;;;;5090750;28;20438;-78
2023/03/31 05:41:09;;;;;;;4.53;1.33;;;11.20;99.90;;;;;;5089677;28;20780;-77
2023/03/31 05:43:36;;;;;;;3.67;1.63;;;11.20;99.90;;;;;;5089962;28;20462;-78
2023/03/31 05:46:02;;;;;;;5.83;2.33;;;11.10;99.90;;;;;;5091049;28;20454;-78
2023/03/31 05:48:28;;;;;;;4.23;1.60;;;11.10;99.90;;;;;;5093601;28;20475;-78
2023/03/31 05:50:58;;;;;;;2.17;1.67;;;11.10;99.90;;;;;;5092101;28;20525;-77
2023/03/31 05:53:24;;;;;;;4.90;1.80;;;11.10;99.90;;;;;;5090735;28;20180;-78
2023/03/31 05:55:59;;;;;;;5.53;1.70;;;11.10;99.90;;;;;;5101934;28;21004;-78
2023/03/31 05:58:25;;;;;;;5.33;2.17;;;11.00;99.90;;;;;;5099346;28;20525;-77
2023/03/31 06:01:05;;;;;;;5.13;1.60;;;11.00;99.90;;;;;;5096394;28;20430;-78
2023/03/31 06:03:35;;;;;;;3.40;1.73;;;11.00;99.90;;;;;;5090195;28;20429;-78
2023/03/31 06:06:02;;;;;;;5.50;1.90;;;11.00;99.90;;;;;;5098963;28;20462;-78
2023/03/31 06:08:28;;;;;;;4.00;1.93;;;11.00;99.90;;;;;;5092815;28;20421;-78
2023/03/31 06:10:54;;;;;;;4.50;1.60;;;11.00;99.90;;;;;;5090706;28;20509;-77
2023/03/31 06:13:20;;;;;;;3.77;1.30;;;11.00;99.90;;;;;;5091706;28;20499;-78
2023/03/31 06:15:59;;;;;;;3.67;1.80;;;11.00;99.90;;;;;;5092396;28;20227;-78
2023/03/31 06:18:28;;;;;;;3.10;1.73;;;11.00;99.90;;;;;;5092060;28;20180;-78
2023/03/31 06:20:57;;;;;;;2.10;1.73;;;11.00;99.90;;;;;;5092408;28;20487;-78
2023/03/31 06:23:24;;;;;;;2.83;1.43;;;11.00;99.90;;;;;;5091821;28;20501;-78
2023/03/31 06:25:50;;;;;;;3.80;1.07;;;11.00;99.90;;;;;;5090812;28;20886;-78
2023/03/31 06:28:16;;;;;;;2.23;1.37;;;11.00;99.90;;;;;;5092004;28;20417;-78
2023/03/31 06:30:42;;;;;;;3.37;1.10;;;11.00;99.90;;;;;;5093143;28;20402;-78
2023/03/31 06:33:08;;;;;;;4.03;1.20;;;11.00;99.90;;;;;;5091904;28;20414;-78
2023/03/31 06:35:37;;;;;;;2.57;1.23;;;10.90;99.90;;;;;;5091359;28;20454;-78
2023/03/31 06:38:03;;;;;;;2.20;1.30;;;10.90;99.90;;;;;;5091988;28;20222;-78
2023/03/31 06:40:29;;;;;;;3.37;1.40;;;11.00;99.90;;;;;;5093177;28;21208;-78
2023/03/31 06:42:55;;;;;;;2.80;1.20;;;11.00;99.90;;;;;;5092833;28;20191;-78
2023/03/31 06:45:20;;;;;;;2.80;1.17;;;11.00;99.90;;;;;;5092551;28;20458;-78
2023/03/31 06:47:46;;;;;;;4.87;1.40;;;11.00;99.90;;;;;;5092213;28;20210;-78
2023/03/31 06:50:12;;;;;;;2.07;1.37;;;11.00;99.90;;;;;;5092545;28;20183;-78
2023/03/31 06:52:39;;;;;;;2.63;1.33;;;11.00;99.90;;;;;;5092488;28;20180;-78
2023/03/31 06:55:06;;;;;;;2.37;1.07;;;11.00;99.90;;;;;;5084799;28;20248;-78
2023/03/31 06:57:32;;;;;;;2.97;1.47;;;11.00;99.90;;;;;;5090235;28;20419;-78
2023/03/31 06:59:59;;;;;;;3.60;1.73;;;11.00;99.90;;;;;;5091333;28;20442;-78
2023/03/31 07:02:24;;;;;;;4.40;1.30;;;11.00;99.90;;;;;;5097953;28;20451;-78
2023/03/31 07:04:50;;;;;;;3.07;1.53;;;11.00;99.90;;;;;;5100294;28;20861;-78
2023/03/31 07:07:16;;;;;;;5.77;1.57;;;11.00;99.90;;;;;;5102193;28;20172;-78
2023/03/31 07:09:41;;;;;;;4.10;1.60;;;11.00;99.90;;;;;;5108921;28;20180;-78
2023/03/31 07:12:09;;;;;;;2.60;1.30;;;11.00;99.90;;;;;;5091922;28;20217;-78
2023/03/31 07:14:35;;;;;;;4.00;0.97;;;11.00;99.90;;;;;;5092415;28;20192;-78
2023/03/31 07:17:01;;;;;;;2.93;1.10;;;11.00;99.90;;;;;;5093208;28;20421;-78
2023/03/31 07:19:26;;;;;;;2.93;1.00;;;11.00;99.90;;;;;;5092389;28;20422;-78
2023/03/31 07:21:52;;;;;;;3.00;1.17;;;11.00;99.90;;;;;;5091934;28;20418;-78
2023/03/31 07:24:18;;;;;;;3.43;1.27;;;11.00;99.90;;;;;;5092355;28;20203;-78
2023/03/31 07:26:44;;;;;;;2.73;1.03;;;11.00;99.90;;;;;;5092461;28;20473;-78
2023/03/31 07:29:10;;;;;;;5.33;1.10;;;11.00;99.90;;;;;;5090090;28;20168;-78
2023/03/31 07:31:35;;;;;;;2.97;0.93;;;11.00;99.90;;;;;;5092436;28;20181;-78
2023/03/31 07:34:02;;;;;;;2.73;1.27;;;11.00;99.90;;;;;;5076268;28;20294;-78
2023/03/31 07:36:27;;;;;;;3.23;1.00;;;10.90;99.90;;;;;;5111368;28;20660;-78
2023/03/31 07:38:53;;;;;;;3.83;1.27;;;11.00;99.90;;;;;;5112339;28;20410;-78
2023/03/31 07:41:20;;;;;;;2.17;1.43;;;11.00;99.90;;;;;;5098663;28;20759;-78
2023/03/31 07:43:46;;;;;;;2.90;1.00;;;11.00;99.90;;;;;;5102453;28;20177;-78
2023/03/31 07:46:21;;;;;;;2.53;1.20;;;11.00;99.90;;;;;;5105175;28;20450;-78
2023/03/31 07:48:47;;;;;;;3.30;0.80;;;11.00;99.90;;;;;;5098337;28;20409;-78
2023/03/31 07:51:16;;;;;;;3.50;1.47;;;11.00;99.90;;;;;;5094337;28;20423;-78
2023/03/31 07:53:42;;;;;;;2.90;1.10;;;11.00;99.90;;;;;;5095368;28;20450;-78
2023/03/31 07:56:08;;;;;;;3.07;1.20;;;11.00;99.90;;;;;;5093969;28;20475;-78
2023/03/31 07:58:34;;;;;;;2.67;1.30;;;11.00;99.90;;;;;;5095898;28;20461;-78
2023/03/31 08:01:00;;;;;;;2.27;1.00;;;11.00;99.90;;;;;;5094825;28;20915;-78
2023/03/31 08:03:26;;;;;;;2.33;1.20;;;11.00;99.90;;;;;;5075751;28;20241;-78
2023/03/31 08:05:52;;;;;;;1.30;0.80;;;11.00;99.90;;;;;;5094948;28;20553;-78
2023/03/31 08:08:18;;;;;;;2.17;0.90;;;11.00;99.90;;;;;;5094924;28;20437;-79
2023/03/31 08:10:44;;;;;;;2.50;0.90;;;11.00;99.90;;;;;;5094694;28;20986;-78
2023/03/31 08:13:10;;;;;;;1.33;0.80;;;11.10;99.90;;;;;;5093892;28;20433;-78
2023/03/31 08:15:35;;;;;;;1.30;0.80;;;11.10;99.90;;;;;;5095649;28;20274;-78
2023/03/31 08:18:03;;;;;;;0.97;0.67;;;11.10;99.90;;;;;;5095133;28;20410;-78
2023/03/31 08:20:28;;;;;;;1.07;0.93;;;11.10;99.90;;;;;;5095113;28;20299;-78
2023/03/31 08:22:54;;;;;;;2.03;0.70;;;11.00;99.90;;;;;;5095433;28;20467;-78
2023/03/31 08:25:20;;;;;;;2.20;1.10;;;11.00;99.90;;;;;;5095135;28;20208;-78
2023/03/31 08:27:49;;;;;;;2.50;1.20;;;11.00;99.90;;;;;;5095559;28;20263;-79
2023/03/31 08:30:17;;;;;;;1.63;0.90;;;11.10;99.90;;;;;;5094935;28;20442;-78
2023/03/31 08:32:43;;;;;;;2.80;1.07;;;11.20;99.90;;;;;;5093607;28;20433;-78
2023/03/31 08:35:09;;;;;;;7.13;1.57;;;11.10;99.90;;;;;;5094666;28;20430;-78
2023/03/31 08:37:36;;;;;;;2.83;1.13;;;11.20;99.90;;;;;;5094912;28;20214;-78
2023/03/31 08:40:08;;;;;;;4.43;1.50;;;11.20;99.90;;;;;;5095395;28;20414;-78
2023/03/31 08:42:48;;;;;;;1.43;1.00;;;11.20;99.90;;;;;;5094896;28;20820;-78
2023/03/31 08:45:31;;;;;;;1.30;0.80;;;11.20;99.90;;;;;;5094521;28;20458;-78
2023/03/31 08:48:28;;;;;;;2.03;0.80;;;11.30;99.90;;;;;;5094237;28;20425;-78
2023/03/31 08:51:13;;;;;;;3.83;1.17;;;11.30;99.90;;;;;;5093258;28;20459;-78
2023/03/31 08:53:45;;;;;;;2.43;1.00;;;11.30;99.90;;;;;;5093709;28;20403;-79
2023/03/31 08:56:18;;;;;;;2.13;1.10;;;11.40;99.90;;;;;;5093406;28;20407;-78
2023/03/31 08:58:47;;;;;;;2.13;1.07;;;11.40;99.90;;;;;;5094491;28;20423;-78
2023/03/31 09:01:40;;;;;;;2.33;0.80;;;11.40;99.90;;;;;;5095254;28;20433;-78
2023/03/31 09:04:06;;;;;;;2.00;0.90;;;11.40;99.90;;;;;;5094356;28;20487;-78
2023/03/31 09:07:03;;;;;;;2.80;1.30;;;11.40;99.90;;;;;;5092478;28;20462;-78
2023/03/31 09:09:29;;;;;;;3.13;0.93;;;11.40;99.90;;;;;;5093406;28;20621;-78
2023/03/31 09:12:00;;;;;;;2.67;1.40;;;11.50;99.90;;;;;;5093338;28;20407;-78
2023/03/31 09:15:11;;;;;;;3.43;1.43;;;11.50;99.90;;;;;;5094106;28;20460;-78
2023/03/31 09:17:41;;;;;;;2.90;1.30;;;11.60;99.90;;;;;;5090920;28;20422;-78
2023/03/31 09:20:30;;;;;;;3.30;1.47;;;11.50;99.90;;;;;;5094495;28;20399;-79
2023/03/31 09:23:05;;;;;;;1.27;1.10;;;11.50;99.90;;;;;;5093294;28;20418;-77
2023/03/31 09:25:35;;;;;;;4.83;1.30;;;11.60;99.90;;;;;;5086050;28;20472;-79
2023/03/31 09:28:07;;;;;;;2.10;1.37;;;11.50;99.90;;;;;;5092128;28;20425;-79
2023/03/31 09:30:35;;;;;;;1.93;1.07;;;11.60;99.90;;;;;;5093556;28;20450;-78
2023/03/31 09:33:21;;;;;;;4.10;1.30;;;11.60;99.90;;;;;;5091741;28;20414;-78
2023/03/31 09:35:47;;;;;;;3.23;1.37;;;11.60;99.90;;;;;;5094252;28;20434;-78
2023/03/31 09:38:14;;;;;;;2.70;1.27;;;11.70;99.90;;;;;;5094346;28;20418;-78
2023/03/31 09:40:41;;;;;;;1.30;1.03;;;11.70;99.90;;;;;;5094491;28;20195;-79
2023/03/31 09:43:39;;;;;;;2.10;1.17;;;11.80;99.90;;;;;;5092951;28;20430;-79
2023/03/31 09:46:23;;;;;;;2.07;1.20;;;11.90;99.90;;;;;;5069826;28;20517;-78
2023/03/31 09:49:05;;;;;;;4.63;1.27;;;11.90;99.90;;;;;;5072221;28;20811;-78
2023/03/31 09:51:36;;;;;;;2.60;1.20;;;11.90;99.90;;;;;;5073719;28;20422;-77
2023/03/31 09:54:20;;;;;;;4.87;1.60;;;12.00;99.90;;;;;;5073000;28;20434;-78
2023/03/31 09:56:51;;;;;;;2.90;1.50;;;12.00;99.90;;;;;;5070761;28;20432;-79
2023/03/31 09:59:21;;;;;;;2.50;1.47;;;12.00;99.90;;;;;;5072477;28;20435;-78
2023/03/31 10:01:50;;;;;;;3.87;1.60;;;12.00;99.90;;;;;;5072565;28;20407;-78
2023/03/31 10:04:23;;;;;;;2.33;1.33;;;12.00;99.90;;;;;;5073588;28;20790;-78
2023/03/31 10:06:51;;;;;;;2.73;1.50;;;12.00;99.90;;;;;;5073406;28;20948;-78
2023/03/31 10:09:20;;;;;;;3.00;1.50;;;12.10;99.90;;;;;;5072868;28;20502;-78
2023/03/31 10:12:19;;;;;;;5.90;1.70;;;12.00;99.90;;;;;;5073198;28;20499;-78
2023/03/31 10:14:47;;;;;;;4.60;1.70;;;12.00;99.90;;;;;;5073472;28;20436;-77
2023/03/31 10:17:26;;;;;;;3.30;1.50;;;12.10;99.90;;;;;;5073573;28;20830;-78
2023/03/31 10:19:59;;;;;;;3.10;1.60;;;12.10;99.90;;;;;;5072185;28;20446;-78
2023/03/31 10:22:31;;;;;;;3.70;1.83;;;12.10;99.90;;;;;;5073562;28;20904;-78
2023/03/31 10:25:19;;;;;;;3.40;1.90;;;12.20;99.90;;;;;;5071847;28;20445;-77
2023/03/31 10:27:50;;;;;;;5.60;1.80;;;12.30;99.90;;;;;;5073393;28;20927;-77
2023/03/31 10:30:34;;;;;;;3.40;2.00;;;12.30;99.90;;;;;;5073266;28;20659;-78
2023/03/31 10:33:04;;;;;;;4.23;1.93;;;12.30;99.90;;;;;;5073088;28;20435;-78
2023/03/31 10:35:35;;;;;;;6.17;2.23;;;12.30;99.90;;;;;;5073093;28;21004;-78
2023/03/31 10:38:07;;;;;;;5.10;2.57;;;12.20;99.90;;;;;;5072597;28;20411;-78
2023/03/31 10:40:35;;;;;;;6.50;2.57;;;12.20;99.90;;;;;;5073801;28;20490;-78
2023/03/31 10:43:05;;;;;;;8.27;2.40;;;12.20;99.90;;;;;;5071611;28;20469;-78
2023/03/31 10:45:47;;;;;;;7.33;2.20;;;12.20;99.90;;;;;;5071114;28;20467;-78
2023/03/31 10:48:26;;;;;;;5.30;2.23;;;12.20;99.90;;;;;;5072582;28;20483;-79
2023/03/31 10:50:52;;;;;;;11.70;2.93;;;12.30;99.90;;;;;;5072293;28;20427;-78
2023/03/31 10:53:19;;;;;;;9.90;2.67;;;12.40;99.90;;;;;;5072217;28;20426;-79
2023/03/31 10:56:03;;;;;;;8.80;2.63;;;12.60;99.90;;;;;;5072129;28;20466;-78
2023/03/31 10:59:15;;;;;;;11.30;3.40;;;12.70;99.90;;;;;;5072540;28;20439;-78
2023/03/31 11:02:05;;;;;;;6.67;2.40;;;12.90;99.90;;;;;;5050314;28;20420;-79
2023/03/31 11:04:58;;;;;;;6.50;2.47;;;13.00;99.90;;;;;;5049494;28;21051;-78
2023/03/31 11:07:32;;;;;;;6.90;2.37;;;13.20;99.90;;;;;;5084330;28;20421;-78
2023/03/31 11:10:17;;;;;;;9.60;3.03;;;13.30;99.90;;;;;;5093160;28;20413;-79
2023/03/31 11:13:06;;;;;;;8.77;2.43;;;13.40;99.90;;;;;;5093091;28;20399;-78
2023/03/31 11:16:00;;;;;;;4.03;1.90;;;13.50;99.90;;;;;;5093049;28;20418;-78
2023/03/31 11:18:39;;;;;;;8.37;2.87;;;13.60;99.90;;;;;;5091679;28;20399;-79
2023/03/31 11:21:28;;;;;;;8.00;2.20;;;13.70;99.90;;;;;;5093830;28;20436;-78
2023/03/31 11:24:30;;;;;;;5.17;2.00;;;13.70;99.90;;;;;;5096720;28;20418;-79
2023/03/31 11:27:13;;;;;;;4.00;1.70;;;13.60;99.90;;;;;;5097075;28;20536;-78
2023/03/31 11:30:01;;;;;;;2.73;1.00;;;13.50;99.90;;;;;;5089954;28;20442;-78
2023/03/31 11:33:05;;;;;;;4.10;1.20;;;13.30;99.90;;;;;;5096523;28;20418;-78
2023/03/31 11:35:42;;;;;;;1.70;0.80;;;13.10;99.90;;;;;;5095509;28;20549;-78
2023/03/31 11:38:17;;;;;;;3.13;1.00;;;12.90;99.90;;;;;;5095914;28;20418;-79
2023/03/31 11:41:09;;;;;;;3.70;1.00;;;12.70;99.90;;;;;;5097129;28;20414;-79
2023/03/31 11:43:42;;;;;;;2.87;1.30;;;12.60;99.90;;;;;;5097334;28;20415;-78
2023/03/31 11:46:14;;;;;;;4.60;1.20;;;12.50;99.90;;;;;;5097407;28;20456;-78
2023/03/31 11:48:49;;;;;;;1.60;0.67;;;12.40;99.90;;;;;;5096893;28;20437;-78
2023/03/31 11:51:25;;;;;;;2.53;1.23;;;12.40;99.90;;;;;;5078894;28;21112;-78
2023/03/31 11:53:55;;;;;;;2.80;1.10;;;12.30;99.90;;;;;;5096575;28;20445;-77
2023/03/31 11:56:22;;;;;;;3.03;1.40;;;12.40;99.90;;;;;;5096755;28;20425;-77
2023/03/31 11:58:52;;;;;;;3.90;1.10;;;12.40;99.90;;;;;;5095011;28;20494;-79
2023/03/31 12:01:33;;;;;;;5.00;1.30;;;12.50;99.90;;;;;;5096605;28;20438;-77
2023/03/31 12:04:12;;;;;;;3.67;1.70;;;12.50;99.90;;;;;;5096619;28;20492;-78
2023/03/31 12:06:41;;;;;;;3.83;1.40;;;12.60;99.90;;;;;;5095232;28;20461;-79
2023/03/31 12:09:26;;;;;;;5.33;1.20;;;12.60;99.90;;;;;;5095895;28;20902;-79
2023/03/31 12:12:21;;;;;;;2.00;1.47;;;12.70;99.90;;;;;;5092942;28;20414;-78
2023/03/31 12:15:09;;;;;;;3.47;1.27;;;12.80;99.90;;;;;;5091568;28;20422;-79
2023/03/31 12:17:36;;;;;;;4.30;1.60;;;12.80;99.90;;;;;;5092755;28;20415;-78
2023/03/31 12:20:13;;;;;;;2.30;1.20;;;12.80;99.90;;;;;;5093004;28;20407;-79
2023/03/31 12:22:43;;;;;;;3.33;1.50;;;12.90;99.90;;;;;;5092928;28;20421;-79
2023/03/31 12:25:14;;;;;;;6.23;2.33;;;12.90;99.90;;;;;;5076239;28;20793;-78
2023/03/31 12:27:43;;;;;;;7.73;1.33;;;12.90;99.90;;;;;;5094008;28;20410;-79
2023/03/31 12:30:09;;;;;;;3.23;1.20;;;12.90;99.90;;;;;;5095767;28;20462;-78
2023/03/31 12:32:40;;;;;;;7.37;1.33;;;13.00;99.90;;;;;;5095319;28;21003;-79
2023/03/31 12:35:26;;;;;;;5.17;1.53;;;13.00;99.90;;;;;;5094531;28;20624;-79
2023/03/31 12:38:14;;;;;;;4.03;1.33;;;13.00;99.90;;;;;;5096186;28;20414;-78
2023/03/31 12:41:08;;;;;;;4.30;1.30;;;12.90;99.90;;;;;;5097367;28;20460;-78
2023/03/31 12:43:55;;;;;;;4.67;0.90;;;12.90;99.90;;;;;;5104520;28;20422;-78
2023/03/31 12:46:28;;;;;;;7.60;1.70;;;13.00;99.90;;;;;;5105727;28;20609;-78
2023/03/31 12:49:35;;;;;;;4.50;1.67;;;12.90;99.90;;;;;;5093467;28;20758;-79
2023/03/31 12:52:29;;;;;;;4.20;1.60;;;12.90;99.90;;;;;;5071941;28;20411;-79
2023/03/31 12:55:30;;;;;;;4.97;1.80;;;12.80;99.90;;;;;;5071644;28;20427;-78
2023/03/31 12:58:34;;;;;;;3.30;1.77;;;12.80;99.90;;;;;;5083539;28;20419;-78
2023/03/31 13:01:00;;;;;;;8.10;2.17;;;12.70;99.90;;;;;;5093824;28;20424;-78
2023/03/31 13:03:37;;;;;;;3.30;1.23;;;12.70;99.90;;;;;;5094217;28;20846;-79
2023/03/31 13:06:04;;;;;;;7.80;2.27;;;12.80;99.90;;;;;;5094399;28;20295;-79
2023/03/31 13:08:59;;;;;;;7.30;1.83;;;12.70;99.90;;;;;;5093531;28;20453;-79
2023/03/31 13:11:36;;;;;;;5.03;1.33;;;12.80;99.90;;;;;;5094517;28;20411;-78
2023/03/31 13:14:23;;;;;;;8.60;1.90;;;12.80;99.90;;;;;;5093157;28;20430;-78
2023/03/31 13:16:52;;;;;;;9.90;2.50;;;12.80;99.90;;;;;;5090661;28;20838;-78
2023/03/31 13:19:39;;;;;;;5.40;1.53;;;12.90;99.90;;;;;;5094466;28;20411;-79